Main page
METAR-TAF:

METAR-TAF

Airports :

Gatwick Airport

London-Gatwick, England

latitude: 51-09N, longitude: 000-11W, elevation: 62 m

Current weather observation

The report was made 12 minutes ago, at 19:50 UTC
Wind 5 kt from the North/Northwest, varying between West and North
Temperature 5°C
Humidity 81%
Pressure 1037 hPa
Visibility 10 km or more
Broken clouds at a height of 1800 ft

METAR: EGKK 221950Z 34005KT 280V010 9999 BKN018 05/02 Q1037

Time: 20:02 (20:02 UTC)

Forecast

The report was made 3 hours and 2 minutes ago, at 17:00 UTC
Forecast valid from 22 at 18 UTC to 23 at 24 UTC
Wind 4 kt from the West/Northwest
Visibility 10 km or more
Broken clouds at a height of 2000 ft
Temporary
from 22 at 18 UTC to 22 at 23 UTC
Broken clouds at a height of 1200 ft
Probability 30%
from 22 at 23 UTC to 23 at 24 UTC
Visibility: 7000 m
Broken clouds at a height of 800 ft

TAF: EGKK 221700Z 2218/2324 30004KT 9999 BKN020 TEMPO 2218/2223 BKN012 PROB30 2223/2324 7000 BKN008

Weather observations and forecasts of more than 4000 airports (METAR and TAF reports).

The available stations are represented by yellow and red dots on the map.

Hover mouse over dot to see the name of the station.

Then click to see weather observations and forecasts.

To change the map : click on the green buttons with a black cross to zoom in, on the green button with a dash to zoom out, or on the green arrows for adjacent maps.


METAR-TAF: